createdAt,value
2019-05-09T00:00:06.171Z,7.93
2019-05-09T00:05:07.903Z,6.70
2019-05-09T00:10:08.582Z,5.63
2019-05-09T00:15:08.349Z,8.10
2019-05-09T00:20:17.409Z,4.87
2019-05-09T00:25:17.354Z,5.33
2019-05-09T00:30:19.866Z,5.00
2019-05-09T00:35:27.971Z,5.80
2019-05-09T00:40:27.964Z,6.00
2019-05-09T00:45:58.971Z,6.40
2019-05-09T00:50:58.882Z,3.97
2019-05-09T00:55:58.815Z,3.60
2019-05-09T01:00:58.427Z,3.63
2019-05-09T01:05:58.086Z,5.07
2019-05-09T01:11:09.353Z,3.73
2019-05-09T01:15:59.126Z,3.73
2019-05-09T01:20:58.771Z,3.53
2019-05-09T01:25:58.943Z,4.40
2019-05-09T01:30:58.702Z,3.80
2019-05-09T01:35:58.342Z,5.03
2019-05-09T01:40:58.322Z,5.97
2019-05-09T01:45:57.963Z,6.20
2019-05-09T01:51:09.751Z,5.17
2019-05-09T01:56:09.442Z,4.70
2019-05-09T02:01:10.233Z,6.87
2019-05-09T02:06:09.878Z,8.10
2019-05-09T02:11:09.587Z,5.77
2019-05-09T02:16:26.613Z,7.30
2019-05-09T02:21:26.251Z,9.50
2019-05-09T02:26:25.896Z,6.03
2019-05-09T02:31:25.538Z,7.47
2019-05-09T02:36:25.212Z,9.67
2019-05-09T02:41:24.924Z,8.40
2019-05-09T02:46:30.633Z,8.67
2019-05-09T02:51:30.361Z,7.70
2019-05-09T02:56:30.051Z,7.50
2019-05-09T03:02:04.143Z,9.30
2019-05-09T03:07:04.157Z,7.67
2019-05-09T03:12:21.343Z,5.83
2019-05-09T03:17:05.249Z,6.80
2019-05-09T03:22:10.339Z,7.90
2019-05-09T03:27:18.719Z,5.77
2019-05-09T03:32:19.478Z,7.90
2019-05-09T03:37:18.842Z,7.73
2019-05-09T03:42:21.538Z,6.27
2019-05-09T03:47:51.068Z,7.83
2019-05-09T03:52:50.719Z,6.13
2019-05-09T03:58:12.558Z,10.23
2019-05-09T04:03:12.299Z,7.13
2019-05-09T04:08:18.791Z,12.03
2019-05-09T04:13:19.051Z,9.43
2019-05-09T04:18:19.189Z,6.40
2019-05-09T04:23:18.847Z,6.47
2019-05-09T04:28:18.538Z,6.70
2019-05-09T04:33:18.239Z,9.30
2019-05-09T04:38:18.014Z,7.47
2019-05-09T04:43:26.800Z,8.57
2019-05-09T04:48:31.978Z,9.90
2019-05-09T04:53:32.076Z,10.50
2019-05-09T04:58:31.710Z,11.00
2019-05-09T05:03:31.928Z,11.27
2019-05-09T05:08:44.199Z,9.90
2019-05-09T05:13:43.863Z,12.27
2019-05-09T05:18:43.751Z,10.90
2019-05-09T05:24:05.336Z,18.90
2019-05-09T05:29:05.071Z,11.97
2019-05-09T05:34:12.038Z,15.37
2019-05-09T05:39:11.692Z,17.73
2019-05-09T05:44:11.330Z,20.57
2019-05-09T05:49:10.963Z,15.37
2019-05-09T05:54:10.666Z,18.30
2019-05-09T05:59:10.347Z,16.13
2019-05-09T06:04:09.992Z,14.27
2019-05-09T06:09:09.908Z,17.47
2019-05-09T06:14:11.854Z,14.83
2019-05-09T06:19:11.212Z,15.57
2019-05-09T06:24:10.987Z,18.53
2019-05-09T06:29:10.715Z,13.77
2019-05-09T06:34:10.363Z,19.10
2019-05-09T06:39:10.517Z,21.60
2019-05-09T06:44:32.107Z,19.67
2019-05-09T06:49:37.648Z,16.87
2019-05-09T06:54:41.228Z,17.10
2019-05-09T06:59:38.840Z,13.27
2019-05-09T07:04:50.971Z,19.33
2019-05-09T07:09:53.456Z,17.77
2019-05-09T07:14:53.120Z,17.90
2019-05-09T07:19:52.778Z,19.00
2019-05-09T07:25:08.644Z,20.57
2019-05-09T07:30:14.678Z,19.60
2019-05-09T07:35:14.331Z,16.00
2019-05-09T07:40:14.540Z,17.00
2019-05-09T07:45:14.275Z,15.73
2019-05-09T07:50:14.467Z,16.10
2019-05-09T07:55:14.183Z,15.90
2019-05-09T08:00:13.941Z,16.07
2019-05-09T08:05:17.466Z,18.57
2019-05-09T08:10:17.634Z,16.20
2019-05-09T08:15:20.305Z,15.90
2019-05-09T08:20:18.868Z,15.97
2019-05-09T08:25:18.499Z,14.27
2019-05-09T08:30:19.395Z,12.97
2019-05-09T08:35:19.059Z,11.50
2019-05-09T08:40:21.558Z,15.13
2019-05-09T08:45:27.511Z,14.67
2019-05-09T08:50:31.280Z,13.00
2019-05-09T08:55:30.928Z,12.63
2019-05-09T09:00:30.584Z,13.77
2019-05-09T09:05:30.227Z,11.70
2019-05-09T09:10:29.967Z,7.90
2019-05-09T09:15:55.729Z,11.07
2019-05-09T09:20:31.335Z,7.90
2019-05-09T09:25:31.310Z,7.10
2019-05-09T09:30:30.978Z,9.30
2019-05-09T09:35:30.633Z,8.13
2019-05-09T09:40:30.274Z,7.30
2019-05-09T09:45:30.173Z,6.37
2019-05-09T09:50:29.827Z,5.40
2019-05-09T09:55:29.559Z,6.80
2019-05-09T10:01:03.214Z,5.20
2019-05-09T10:06:02.771Z,6.40
2019-05-09T10:11:02.519Z,4.33
2019-05-09T10:16:29.020Z,6.53
2019-05-09T10:21:28.955Z,9.33
2019-05-09T10:26:28.935Z,3.47
2019-05-09T10:31:28.722Z,4.43
2019-05-09T10:36:28.356Z,7.17
2019-05-09T10:41:28.579Z,4.80
2019-05-09T10:46:53.622Z,5.00
2019-05-09T10:51:48.668Z,4.50
2019-05-09T10:56:48.810Z,4.20
2019-05-09T11:01:49.736Z,3.17
2019-05-09T11:06:49.620Z,4.00
2019-05-09T11:11:49.284Z,2.97
2019-05-09T11:16:54.435Z,3.30
2019-05-09T11:21:50.915Z,3.50
2019-05-09T11:26:51.617Z,3.13
2019-05-09T11:31:51.343Z,2.43
2019-05-09T11:36:51.095Z,4.77
2019-05-09T11:41:50.804Z,3.50
2019-05-09T11:46:50.455Z,5.10
2019-05-09T11:51:50.088Z,1.77
2019-05-09T11:56:49.827Z,1.60
2019-05-09T12:01:49.468Z,3.33
2019-05-09T12:06:49.469Z,1.97
2019-05-09T12:11:49.331Z,2.97
2019-05-09T12:16:48.992Z,2.20
2019-05-09T12:21:48.674Z,9.67
2019-05-09T12:26:48.451Z,1.90
2019-05-09T12:31:48.650Z,1.43
2019-05-09T12:36:49.271Z,3.27
2019-05-09T12:41:50.245Z,1.70
2019-05-09T12:46:49.891Z,2.27
2019-05-09T12:51:49.531Z,3.30
2019-05-09T12:56:49.191Z,1.20
2019-05-09T13:01:49.509Z,1.63
2019-05-09T13:06:49.319Z,4.67
2019-05-09T13:11:49.943Z,5.47
2019-05-09T13:17:01.235Z,7.20
2019-05-09T13:22:00.893Z,2.13
2019-05-09T13:27:00.551Z,1.80
2019-05-09T13:32:00.297Z,1.70
2019-05-09T13:36:59.952Z,3.93
2019-05-09T13:41:59.636Z,4.83
2019-05-09T13:46:59.275Z,2.23
2019-05-09T13:52:04.404Z,2.20
2019-05-09T13:57:01.610Z,2.10
2019-05-09T14:02:01.450Z,1.67
2019-05-09T14:07:01.219Z,4.97
2019-05-09T14:12:00.861Z,3.60
2019-05-09T14:17:00.508Z,5.07
2019-05-09T14:22:00.427Z,2.60
2019-05-09T14:27:00.548Z,6.80
2019-05-09T14:32:04.997Z,11.30
2019-05-09T14:37:02.519Z,1.30
2019-05-09T14:42:02.159Z,1.17
2019-05-09T14:47:01.852Z,0.80
2019-05-09T14:52:01.556Z,1.47
2019-05-09T14:57:01.272Z,3.77
2019-05-09T15:02:00.935Z,6.73
2019-05-09T15:07:00.843Z,1.90
2019-05-09T15:12:00.472Z,0.90
2019-05-09T15:17:00.375Z,1.00
2019-05-09T15:22:00.928Z,0.87
2019-05-09T15:27:01.175Z,2.30
2019-05-09T15:32:04.960Z,0.80
2019-05-09T15:37:02.227Z,1.37
2019-05-09T15:42:01.887Z,6.40
2019-05-09T15:47:07.618Z,1.20
2019-05-09T15:52:07.505Z,2.13
2019-05-09T15:57:08.607Z,2.03
2019-05-09T16:02:09.255Z,2.23
2019-05-09T16:07:09.036Z,1.77
2019-05-09T16:12:08.670Z,2.00
2019-05-09T16:17:08.355Z,2.03
2019-05-09T16:22:08.189Z,1.07
2019-05-09T16:27:09.819Z,2.03
2019-05-09T16:32:09.460Z,1.40
2019-05-09T16:37:10.179Z,4.77
2019-05-09T16:42:10.139Z,3.83
2019-05-09T16:47:09.915Z,1.87
2019-05-09T16:52:09.571Z,1.07
2019-05-09T16:57:09.272Z,1.03
2019-05-09T17:02:18.709Z,1.93
2019-05-09T17:07:10.474Z,2.30
2019-05-09T17:12:10.270Z,2.50
2019-05-09T17:17:09.979Z,5.07
2019-05-09T17:22:14.546Z,4.00
2019-05-09T17:27:14.546Z,8.10
2019-05-09T17:32:14.327Z,3.10
2019-05-09T17:37:14.104Z,1.40
2019-05-09T17:42:13.722Z,3.37
2019-05-09T17:47:13.435Z,3.53
2019-05-09T17:52:13.091Z,3.50
2019-05-09T17:57:12.871Z,3.57
2019-05-09T18:02:12.687Z,2.77
2019-05-09T18:07:12.667Z,3.90
2019-05-09T18:12:12.303Z,7.20
2019-05-09T18:17:12.025Z,3.83
2019-05-09T18:22:11.867Z,10.50
2019-05-09T18:27:11.575Z,4.30
2019-05-09T18:32:28.840Z,5.97
2019-05-09T18:37:28.507Z,3.60
2019-05-09T18:42:28.215Z,10.00
2019-05-09T18:47:28.251Z,6.33
2019-05-09T18:52:27.897Z,4.63
2019-05-09T18:57:27.603Z,6.70
2019-05-09T19:02:28.224Z,3.57
2019-05-09T19:07:28.148Z,4.53
2019-05-09T19:12:27.793Z,3.43
2019-05-09T19:17:58.816Z,3.70
2019-05-09T19:22:58.768Z,2.20
2019-05-09T19:27:58.447Z,5.27
2019-05-09T19:32:58.144Z,2.10
2019-05-09T19:37:57.882Z,3.23
2019-05-09T19:42:57.835Z,3.10
2019-05-09T19:47:57.486Z,3.53
2019-05-09T19:52:57.474Z,2.60
2019-05-09T19:57:57.120Z,4.20
2019-05-09T20:02:57.079Z,7.23
2019-05-09T20:07:56.731Z,10.60
2019-05-09T20:13:12.365Z,6.43
2019-05-09T20:18:12.080Z,9.50
2019-05-09T20:23:11.719Z,7.23
2019-05-09T20:28:11.351Z,6.50
2019-05-09T20:33:11.015Z,7.50
2019-05-09T20:38:10.847Z,5.00
2019-05-09T20:43:10.770Z,5.87
2019-05-09T20:48:10.622Z,6.90
2019-05-09T20:53:10.542Z,6.47
2019-05-09T20:58:11.517Z,5.20
2019-05-09T21:03:11.768Z,5.00
2019-05-09T21:08:12.582Z,4.10
2019-05-09T21:13:12.458Z,4.40
2019-05-09T21:18:12.342Z,4.23
2019-05-09T21:23:24.375Z,3.80
2019-05-09T21:28:14.818Z,4.57
2019-05-09T21:33:15.622Z,5.00
2019-05-09T21:38:15.279Z,4.60
2019-05-09T21:43:14.912Z,6.57
2019-05-09T21:48:14.551Z,3.80
2019-05-09T21:53:15.172Z,8.40
2019-05-09T21:58:15.763Z,3.90
2019-05-09T22:03:15.855Z,4.30
2019-05-09T22:08:15.621Z,6.07
2019-05-09T22:13:15.352Z,5.83
2019-05-09T22:18:15.063Z,5.33
2019-05-09T22:23:14.735Z,5.40
2019-05-09T22:28:14.351Z,4.37
2019-05-09T22:33:13.997Z,4.43
2019-05-09T22:38:13.637Z,5.10
2019-05-09T22:43:13.295Z,3.60
2019-05-09T22:48:12.927Z,3.50
2019-05-09T22:53:13.600Z,4.93
2019-05-09T22:58:13.313Z,4.90
2019-05-09T23:03:12.952Z,3.60
2019-05-09T23:08:12.615Z,5.13
2019-05-09T23:13:12.336Z,4.50
2019-05-09T23:18:12.071Z,11.80
2019-05-09T23:23:25.461Z,3.20
2019-05-09T23:28:26.082Z,4.53
2019-05-09T23:33:27.606Z,3.60
2019-05-09T23:38:27.291Z,4.70
2019-05-09T23:43:26.933Z,2.97
2019-05-09T23:48:26.626Z,2.60
2019-05-09T23:53:34.439Z,3.03
2019-05-09T23:58:52.031Z,4.00
